Time;durP1;ratioP1;P1;durP2;ratioP2;P2;SDS_P1;SDS_P2;PMS_P1;PMS_P2;Temp;Humidity;BMP_temperature;BMP_pressure;BME280_temperature;BME280_humidity;BME280_pressure;Samples;Min_cycle;Max_cycle;Signal;HPM_P1;HPM_P2
2021/12/04 00:01:12;;;;;;;32.20;24.83;;;4.90;99.90;;;;;;5092872;28;20066;-71
2021/12/04 00:03:40;;;;;;;34.67;24.35;;;4.80;99.90;;;;;;5092867;28;20117;-82
2021/12/04 00:06:14;;;;;;;32.38;23.65;;;4.90;99.90;;;;;;5125207;27;20507;-83
2021/12/04 00:08:44;;;;;;;34.78;24.70;;;4.90;99.90;;;;;;5092062;28;20114;-77
2021/12/04 00:11:09;;;;;;;36.97;23.33;;;4.90;99.90;;;;;;5081170;28;20051;-83
2021/12/04 00:13:35;;;;;;;36.28;24.75;;;4.90;99.90;;;;;;5074382;28;20408;-82
2021/12/04 00:16:01;;;;;;;31.25;23.17;;;4.90;99.90;;;;;;5126734;27;20404;-81
2021/12/04 00:18:27;;;;;;;38.00;23.75;;;4.90;99.90;;;;;;5091770;28;20459;-82
2021/12/04 00:20:52;;;;;;;34.13;23.00;;;4.90;99.90;;;;;;5125735;27;20048;-78
2021/12/04 00:23:18;;;;;;;33.15;24.10;;;4.90;99.90;;;;;;5092126;28;20036;-84
2021/12/04 00:25:43;;;;;;;34.22;23.40;;;4.80;99.90;;;;;;5091726;28;20408;-78
2021/12/04 00:28:09;;;;;;;37.50;23.27;;;4.90;99.90;;;;;;5091364;28;20090;-85
2021/12/04 00:30:35;;;;;;;33.63;23.45;;;4.80;99.90;;;;;;5126338;27;20110;-78
2021/12/04 00:33:04;;;;;;;34.78;23.38;;;4.90;99.90;;;;;;5091300;28;20077;-85
2021/12/04 00:38:16;;;;;;;34.88;22.67;;;4.90;99.90;;;;;;5091982;28;20463;-83
2021/12/04 00:49:12;;;;;;;33.90;21.75;;;4.90;99.90;;;;;;5091292;28;20062;-83
2021/12/04 00:51:45;;;;;;;31.98;20.88;;;4.90;99.90;;;;;;5090980;28;20492;-82
2021/12/04 00:54:13;;;;;;;29.48;21.40;;;4.90;99.90;;;;;;5075028;28;20044;-83
2021/12/04 00:56:41;;;;;;;29.33;21.15;;;4.90;99.90;;;;;;5090580;28;20157;-83
2021/12/04 00:59:07;;;;;;;29.75;19.75;;;4.90;99.90;;;;;;5074711;28;20093;-83
2021/12/04 01:01:33;;;;;;;30.02;19.63;;;4.90;99.90;;;;;;5073946;28;20492;-84
2021/12/04 01:03:59;;;;;;;29.63;19.08;;;4.90;99.90;;;;;;5074176;28;20044;-83
2021/12/04 01:06:25;;;;;;;31.88;21.13;;;4.90;99.90;;;;;;5092778;28;20088;-84
2021/12/04 01:08:51;;;;;;;27.58;19.98;;;4.90;99.90;;;;;;5092007;28;20524;-83
2021/12/04 01:11:16;;;;;;;27.63;19.52;;;4.90;99.90;;;;;;5088990;28;20044;-83
2021/12/04 01:13:43;;;;;;;26.23;19.50;;;4.90;99.90;;;;;;5071116;28;20048;-76
2021/12/04 01:16:11;;;;;;;26.17;19.48;;;4.90;99.90;;;;;;5091326;28;20100;-85
2021/12/04 01:18:37;;;;;;;25.20;18.85;;;4.90;99.90;;;;;;5091580;28;20084;-86
2021/12/04 01:21:03;;;;;;;29.75;19.88;;;4.90;99.90;;;;;;5091861;28;20416;-86
2021/12/04 01:23:29;;;;;;;24.83;18.63;;;4.90;99.90;;;;;;5090784;28;20044;-79
2021/12/04 01:25:54;;;;;;;23.35;18.55;;;4.90;99.90;;;;;;5090444;28;20051;-79
2021/12/04 01:28:20;;;;;;;23.67;18.92;;;4.90;99.90;;;;;;5108201;28;20040;-79
2021/12/04 01:30:45;;;;;;;23.27;17.92;;;4.90;99.90;;;;;;5089558;28;20051;-79
2021/12/04 01:33:11;;;;;;;23.38;18.75;;;4.90;99.90;;;;;;5091276;28;20127;-75
2021/12/04 01:35:37;;;;;;;21.92;17.67;;;4.90;99.90;;;;;;5120655;27;20036;-81
2021/12/04 01:38:03;;;;;;;21.00;17.23;;;4.90;99.90;;;;;;5090142;28;20039;-77
2021/12/04 01:40:28;;;;;;;23.35;18.45;;;4.90;99.90;;;;;;5079850;28;20113;-80
2021/12/04 01:42:54;;;;;;;18.38;16.30;;;4.90;99.90;;;;;;5088542;28;20127;-80
2021/12/04 01:45:20;;;;;;;18.70;15.20;;;4.90;99.90;;;;;;5075991;28;20043;-80
2021/12/04 01:47:46;;;;;;;18.23;16.10;;;4.90;99.90;;;;;;5090001;28;20117;-79
2021/12/04 01:50:11;;;;;;;19.02;15.50;;;4.90;99.90;;;;;;5090749;28;20109;-74
2021/12/04 01:52:37;;;;;;;17.85;14.63;;;4.90;99.90;;;;;;5072393;28;20435;-80
2021/12/04 01:55:04;;;;;;;16.52;14.73;;;4.90;99.90;;;;;;5090781;28;20051;-87
2021/12/04 01:57:31;;;;;;;16.05;14.48;;;4.90;99.90;;;;;;5090385;28;20036;-87
2021/12/04 01:59:58;;;;;;;16.38;14.68;;;4.90;99.90;;;;;;5074365;28;20050;-86
2021/12/04 02:02:24;;;;;;;15.02;13.38;;;4.90;99.90;;;;;;5091202;28;20042;-87
2021/12/04 02:04:50;;;;;;;17.55;14.05;;;4.90;99.90;;;;;;5090380;28;20131;-87
2021/12/04 02:07:19;;;;;;;15.10;13.60;;;4.90;99.90;;;;;;5073878;28;20044;-87
2021/12/04 02:09:45;;;;;;;16.27;13.98;;;4.90;99.90;;;;;;5088272;28;20558;-85
2021/12/04 02:12:11;;;;;;;16.00;13.15;;;4.90;99.90;;;;;;5125177;27;20051;-86
2021/12/04 02:14:40;;;;;;;15.57;13.90;;;4.80;99.90;;;;;;5090555;28;20396;-87
2021/12/04 02:17:07;;;;;;;14.93;13.43;;;4.90;99.90;;;;;;5090819;28;20043;-81
2021/12/04 02:19:33;;;;;;;15.65;13.90;;;4.90;99.90;;;;;;5090319;28;20875;-87
2021/12/04 02:21:58;;;;;;;15.45;13.75;;;4.90;99.90;;;;;;5124808;27;20575;-89
2021/12/04 02:24:24;;;;;;;16.83;15.00;;;4.80;99.90;;;;;;5090655;28;20127;-86
2021/12/04 02:26:50;;;;;;;15.50;13.90;;;4.90;99.90;;;;;;5114087;27;20043;-88
2021/12/04 02:29:17;;;;;;;17.63;15.82;;;4.80;99.90;;;;;;5099450;28;20075;-86
2021/12/04 02:31:52;;;;;;;16.48;13.80;;;4.80;99.90;;;;;;5090263;28;20055;-87
2021/12/04 02:34:29;;;;;;;15.25;13.68;;;4.80;99.90;;;;;;5090771;28;20123;-86
2021/12/04 02:36:57;;;;;;;15.77;14.13;;;4.80;99.90;;;;;;5091225;28;20122;-84
2021/12/04 02:39:24;;;;;;;16.80;14.13;;;4.80;99.90;;;;;;5072747;28;20061;-77
2021/12/04 02:41:51;;;;;;;15.00;13.27;;;4.90;99.90;;;;;;5072433;28;20135;-79
2021/12/04 02:44:17;;;;;;;15.38;13.70;;;4.90;99.90;;;;;;5072775;28;20040;-79
2021/12/04 02:46:42;;;;;;;15.43;13.25;;;4.80;99.90;;;;;;5088703;28;20451;-79
2021/12/04 02:49:10;;;;;;;16.17;14.55;;;4.80;99.90;;;;;;5089277;28;20086;-79
2021/12/04 02:51:35;;;;;;;15.82;13.77;;;4.90;99.90;;;;;;5072419;28;20092;-83
2021/12/04 02:54:01;;;;;;;16.85;15.02;;;4.80;99.90;;;;;;5104609;28;20048;-80
2021/12/04 02:56:26;;;;;;;16.30;14.60;;;4.80;99.90;;;;;;5072789;28;20070;-81
2021/12/04 02:58:56;;;;;;;16.80;14.02;;;4.80;99.90;;;;;;5074922;28;20048;-80
2021/12/04 03:01:22;;;;;;;16.05;14.35;;;4.80;99.90;;;;;;5089292;28;20083;-82
2021/12/04 03:03:47;;;;;;;16.33;14.13;;;4.90;99.90;;;;;;5089288;28;20048;-86
2021/12/04 03:06:13;;;;;;;14.70;12.80;;;4.90;99.90;;;;;;5090185;28;20040;-82
2021/12/04 03:08:39;;;;;;;17.00;13.45;;;4.90;99.90;;;;;;5088120;28;20037;-83
2021/12/04 03:11:08;;;;;;;14.98;12.93;;;4.90;99.90;;;;;;5089769;28;20063;-80
2021/12/04 03:13:33;;;;;;;15.68;13.85;;;4.90;99.90;;;;;;5103692;28;20047;-81
2021/12/04 03:15:59;;;;;;;14.00;12.45;;;4.80;99.90;;;;;;5071923;28;20044;-82
2021/12/04 03:18:27;;;;;;;15.57;13.88;;;4.90;99.90;;;;;;5090489;28;20554;-82
2021/12/04 03:20:54;;;;;;;16.85;13.60;;;4.90;99.90;;;;;;5072209;28;20495;-77
2021/12/04 03:23:29;;;;;;;16.13;13.40;;;4.90;99.90;;;;;;5088860;28;20044;-78
2021/12/04 03:25:57;;;;;;;15.45;13.38;;;4.80;99.90;;;;;;5089182;28;20044;-82
2021/12/04 03:28:23;;;;;;;19.58;14.40;;;4.80;99.90;;;;;;5076677;28;20527;-80
2021/12/04 03:30:55;;;;;;;16.23;13.60;;;4.90;99.90;;;;;;5102302;28;20040;-82
2021/12/04 03:41:20;;;;;;;14.18;11.77;;;4.80;99.90;;;;;;5052492;28;20401;-81
2021/12/04 03:43:48;;;;;;;16.20;12.82;;;4.80;99.90;;;;;;5117754;27;20048;-82
2021/12/04 03:46:15;;;;;;;14.23;12.45;;;4.90;99.90;;;;;;5092783;28;20127;-76
2021/12/04 03:51:07;;;;;;;15.98;12.48;;;4.90;99.90;;;;;;5092415;28;20060;-79
2021/12/04 03:53:34;;;;;;;17.02;12.95;;;4.90;99.90;;;;;;5075794;28;20036;-78
2021/12/04 03:56:00;;;;;;;14.70;12.43;;;4.90;99.90;;;;;;5093023;28;20136;-79
2021/12/04 03:58:26;;;;;;;14.18;11.88;;;4.90;99.90;;;;;;5067394;28;20123;-79
2021/12/04 04:00:52;;;;;;;14.73;12.30;;;4.90;99.90;;;;;;5075819;28;20476;-79
2021/12/04 04:03:18;;;;;;;14.30;12.77;;;4.90;99.90;;;;;;5105659;28;20123;-79
2021/12/04 04:05:43;;;;;;;14.88;12.27;;;4.90;99.90;;;;;;5091331;28;20119;-79
2021/12/04 04:08:13;;;;;;;13.40;12.00;;;4.90;99.90;;;;;;5075595;28;20101;-79
2021/12/04 04:10:39;;;;;;;15.70;12.45;;;4.90;99.90;;;;;;5074945;28;20459;-79
2021/12/04 04:13:08;;;;;;;13.18;11.60;;;4.90;99.90;;;;;;5091823;28;20043;-79
2021/12/04 04:15:34;;;;;;;14.32;10.93;;;4.90;99.90;;;;;;5091854;28;20055;-79
2021/12/04 04:18:00;;;;;;;14.63;11.90;;;4.90;99.90;;;;;;5092263;28;20051;-79
2021/12/04 04:20:25;;;;;;;13.57;11.57;;;4.90;99.90;;;;;;5091499;28;20040;-75
2021/12/04 04:22:51;;;;;;;14.40;11.50;;;4.90;99.90;;;;;;5121909;27;20044;-79
2021/12/04 04:25:17;;;;;;;14.77;11.82;;;4.90;99.90;;;;;;5090693;28;20048;-80
2021/12/04 04:27:44;;;;;;;13.55;10.80;;;4.90;99.90;;;;;;5091852;28;20442;-80
2021/12/04 04:30:14;;;;;;;12.93;11.13;;;4.90;99.90;;;;;;5093898;28;20127;-83
2021/12/04 04:32:40;;;;;;;13.73;11.45;;;4.90;99.90;;;;;;5092826;28;20056;-88
2021/12/04 04:35:10;;;;;;;15.25;12.05;;;4.90;99.90;;;;;;5094133;28;20036;-85
2021/12/04 05:02:23;;;;;;;12.25;10.45;;;4.90;99.90;;;;;;5090190;28;20052;-82
2021/12/04 05:13:06;;;;;;;12.95;11.02;;;4.90;99.90;;;;;;5051049;28;20044;-77
2021/12/04 05:20:54;;;;;;;17.55;13.27;;;4.90;99.90;;;;;;5091462;28;20056;-87
2021/12/04 05:23:21;;;;;;;15.60;12.45;;;4.90;99.90;;;;;;5074891;28;20404;-78
2021/12/04 05:25:47;;;;;;;15.93;11.80;;;4.90;99.90;;;;;;5074879;28;20087;-87
2021/12/04 05:28:13;;;;;;;14.65;12.25;;;5.00;99.90;;;;;;5099186;28;20492;-84
2021/12/04 05:30:39;;;;;;;15.93;12.43;;;5.00;99.90;;;;;;5119247;27;20131;-78
2021/12/04 05:33:05;;;;;;;14.90;12.48;;;4.90;99.90;;;;;;5113706;27;20119;-83
2021/12/04 05:35:31;;;;;;;17.25;13.25;;;4.90;99.90;;;;;;5073119;28;20115;-83
2021/12/04 05:37:57;;;;;;;19.35;13.82;;;4.90;99.90;;;;;;5073863;28;20444;-83
2021/12/04 05:40:23;;;;;;;17.63;13.57;;;5.00;99.90;;;;;;5073941;28;20051;-83
2021/12/04 05:42:48;;;;;;;16.77;14.45;;;4.90;99.90;;;;;;5103172;28;20409;-84
2021/12/04 05:45:17;;;;;;;17.63;13.75;;;4.90;99.90;;;;;;5090991;28;20123;-77
2021/12/04 05:47:50;;;;;;;17.98;14.30;;;4.90;99.90;;;;;;5058949;28;20060;-85
2021/12/04 05:50:36;;;;;;;17.48;13.75;;;4.90;99.90;;;;;;5124905;27;20043;-75
2021/12/04 05:53:15;;;;;;;19.77;13.60;;;4.90;99.90;;;;;;5053069;28;20059;-74
2021/12/04 05:55:54;;;;;;;20.70;14.50;;;4.90;99.90;;;;;;5074587;28;20028;-84
2021/12/04 05:58:31;;;;;;;17.63;12.80;;;4.90;99.90;;;;;;5069938;28;20106;-83
2021/12/04 06:01:00;;;;;;;19.50;14.30;;;5.10;99.90;;;;;;5077465;28;20078;-81
2021/12/04 06:03:27;;;;;;;21.25;15.30;;;5.00;99.90;;;;;;5049628;28;20047;-83
2021/12/04 06:05:52;;;;;;;20.13;14.93;;;4.90;99.90;;;;;;5061601;28;20036;-84
2021/12/04 06:08:19;;;;;;;21.42;14.65;;;4.90;99.90;;;;;;5125118;27;20051;-86
2021/12/04 06:10:47;;;;;;;20.75;14.68;;;5.00;99.90;;;;;;5089815;28;20500;-85
2021/12/04 06:13:12;;;;;;;23.38;15.68;;;5.00;99.90;;;;;;5074103;28;20040;-86
2021/12/04 06:15:38;;;;;;;25.92;16.13;;;4.90;99.90;;;;;;5097794;28;20555;-80
2021/12/04 06:18:04;;;;;;;25.83;16.77;;;5.00;99.90;;;;;;5090653;28;20044;-78
2021/12/04 06:23:15;;;;;;;31.83;20.00;;;4.90;99.90;;;;;;5091157;28;20044;-84
2021/12/04 06:25:41;;;;;;;32.67;20.95;;;4.90;99.90;;;;;;5089521;28;20192;-86
2021/12/04 06:28:07;;;;;;;30.10;20.42;;;4.90;99.90;;;;;;5125251;27;20047;-84
2021/12/04 06:30:36;;;;;;;31.02;20.13;;;4.90;99.90;;;;;;5090563;28;20044;-82
2021/12/04 06:33:04;;;;;;;35.65;18.95;;;4.90;99.90;;;;;;5050752;28;20493;-75
2021/12/04 06:35:31;;;;;;;30.10;18.40;;;4.90;99.90;;;;;;5066826;28;20370;-86
2021/12/04 06:37:57;;;;;;;32.25;18.80;;;4.80;99.90;;;;;;5087478;28;20059;-85
2021/12/04 06:40:26;;;;;;;28.63;18.10;;;4.90;99.90;;;;;;5091000;28;20054;-87
2021/12/04 06:42:56;;;;;;;27.63;16.58;;;4.90;99.90;;;;;;5107619;28;20396;-72
2021/12/04 06:45:22;;;;;;;29.52;17.27;;;4.80;99.90;;;;;;5084311;28;20044;-85
2021/12/04 06:47:54;;;;;;;28.55;16.38;;;4.80;99.90;;;;;;5069619;28;20134;-87
2021/12/04 06:50:44;;;;;;;31.27;17.42;;;4.90;99.90;;;;;;5090180;28;20104;-86
2021/12/04 06:55:55;;;;;;;31.42;16.48;;;4.90;99.90;;;;;;5080262;28;20595;-87
2021/12/04 06:58:22;;;;;;;33.47;17.38;;;4.90;99.90;;;;;;5090931;28;20044;-87
2021/12/04 07:00:48;;;;;;;29.50;17.70;;;4.90;99.90;;;;;;5106920;28;20056;-82
2021/12/04 07:03:14;;;;;;;32.53;18.40;;;4.90;99.90;;;;;;5060311;28;20032;-84
2021/12/04 07:05:40;;;;;;;35.95;17.20;;;4.80;99.90;;;;;;5089631;28;20044;-83
2021/12/04 07:08:06;;;;;;;32.28;17.60;;;4.90;99.90;;;;;;5090957;28;20076;-79
2021/12/04 07:10:33;;;;;;;36.30;17.70;;;4.90;99.90;;;;;;5069490;28;20044;-74
2021/12/04 07:12:59;;;;;;;37.13;17.45;;;4.90;99.90;;;;;;5117601;28;20052;-87
2021/12/04 07:15:27;;;;;;;32.28;16.10;;;4.90;99.90;;;;;;5080481;28;20115;-85
2021/12/04 07:17:53;;;;;;;28.38;15.45;;;4.90;99.90;;;;;;5094054;28;20087;-87
2021/12/04 07:20:19;;;;;;;35.47;17.50;;;4.90;99.90;;;;;;5094312;28;20507;-86
2021/12/04 07:22:45;;;;;;;40.28;17.67;;;4.90;99.90;;;;;;5092877;28;20035;-84
2021/12/04 07:25:10;;;;;;;37.50;18.42;;;4.90;99.90;;;;;;5093942;28;20051;-81
2021/12/04 07:27:36;;;;;;;32.05;16.52;;;4.90;99.90;;;;;;5092481;28;20504;-82
2021/12/04 07:30:04;;;;;;;34.70;15.82;;;4.80;99.90;;;;;;5091255;28;20062;-74
2021/12/04 07:32:30;;;;;;;27.50;15.10;;;4.80;99.90;;;;;;5125672;27;20044;-81
2021/12/04 07:34:55;;;;;;;26.77;15.38;;;4.80;99.90;;;;;;5089831;28;20051;-83
2021/12/04 07:37:22;;;;;;;35.25;15.95;;;4.80;99.90;;;;;;5059579;28;20123;-83
2021/12/04 07:39:47;;;;;;;26.17;15.68;;;4.90;99.90;;;;;;5059841;28;20409;-75
2021/12/04 07:42:13;;;;;;;25.35;14.88;;;4.80;99.90;;;;;;5073688;28;20086;-82
2021/12/04 07:44:39;;;;;;;31.40;16.30;;;4.90;99.90;;;;;;5094797;28;20111;-84
2021/12/04 07:47:04;;;;;;;26.20;15.68;;;4.90;99.90;;;;;;5105567;27;20048;-82
2021/12/04 07:49:30;;;;;;;24.52;14.23;;;4.90;99.90;;;;;;5105911;28;20382;-82
2021/12/04 07:51:56;;;;;;;25.33;13.77;;;4.90;99.90;;;;;;5093557;27;20052;-82
2021/12/04 07:54:22;;;;;;;25.45;14.70;;;4.90;99.90;;;;;;5075185;28;20040;-76
2021/12/04 07:56:48;;;;;;;25.20;14.13;;;4.90;99.90;;;;;;5054982;28;20151;-78
2021/12/04 07:59:14;;;;;;;23.17;13.25;;;4.90;99.90;;;;;;5077574;28;20045;-77
2021/12/04 08:01:39;;;;;;;21.35;13.65;;;4.90;99.90;;;;;;5064600;28;20052;-78
2021/12/04 08:04:05;;;;;;;17.70;12.40;;;4.90;99.90;;;;;;5097117;27;20067;-79
2021/12/04 08:06:35;;;;;;;19.55;13.45;;;4.90;99.90;;;;;;5064899;28;20040;-77
2021/12/04 08:09:02;;;;;;;26.40;13.90;;;4.90;99.90;;;;;;5091872;28;20049;-77
2021/12/04 08:11:28;;;;;;;20.35;13.60;;;4.90;99.90;;;;;;5046650;28;20535;-78
2021/12/04 08:13:54;;;;;;;21.35;13.57;;;4.90;99.90;;;;;;5077237;28;20064;-78
2021/12/04 08:16:24;;;;;;;17.85;12.85;;;5.00;99.90;;;;;;5057836;28;20110;-78
2021/12/04 08:18:54;;;;;;;22.85;13.95;;;4.90;99.90;;;;;;5052455;28;20386;-76
2021/12/04 08:21:21;;;;;;;20.00;13.32;;;4.90;99.90;;;;;;5052462;28;20045;-78
2021/12/04 08:23:46;;;;;;;22.30;13.75;;;4.90;99.90;;;;;;5073722;28;20109;-78
2021/12/04 08:26:12;;;;;;;21.30;12.93;;;5.00;99.90;;;;;;5071960;28;20477;-79
2021/12/04 08:28:38;;;;;;;20.27;13.35;;;5.00;99.90;;;;;;5067318;28;20075;-76
2021/12/04 08:31:05;;;;;;;20.38;13.00;;;4.90;99.90;;;;;;5074493;28;20106;-77
2021/12/04 08:33:31;;;;;;;19.98;13.80;;;5.00;99.90;;;;;;5093436;27;20041;-78
2021/12/04 08:35:57;;;;;;;22.17;13.77;;;5.00;99.90;;;;;;5087535;27;20162;-79
2021/12/04 08:38:23;;;;;;;27.88;13.55;;;5.00;99.90;;;;;;5057735;28;20082;-75
2021/12/04 08:40:49;;;;;;;21.33;14.25;;;5.00;99.90;;;;;;5105909;28;20036;-80
2021/12/04 08:43:15;;;;;;;25.85;14.43;;;5.10;99.90;;;;;;5090945;28;20047;-80
2021/12/04 08:45:41;;;;;;;21.55;13.90;;;5.10;99.90;;;;;;5089944;28;20044;-77
2021/12/04 08:48:08;;;;;;;30.15;15.65;;;5.10;99.90;;;;;;5090623;28;20055;-75
2021/12/04 08:50:36;;;;;;;25.88;15.45;;;5.10;99.90;;;;;;5091165;28;20055;-80
2021/12/04 08:53:04;;;;;;;26.30;15.35;;;5.10;99.90;;;;;;5090945;28;20488;-79
2021/12/04 08:55:31;;;;;;;25.38;15.65;;;5.10;99.90;;;;;;5091014;28;20044;-78
2021/12/04 08:57:58;;;;;;;28.33;15.60;;;5.10;99.90;;;;;;5073956;28;20740;-79
2021/12/04 09:00:26;;;;;;;26.52;15.57;;;5.10;99.90;;;;;;5074169;28;20048;-79
2021/12/04 09:02:52;;;;;;;29.50;16.40;;;5.10;99.90;;;;;;5090001;28;20059;-76
2021/12/04 09:05:20;;;;;;;31.23;16.85;;;5.10;99.90;;;;;;5075295;28;20464;-79
2021/12/04 09:07:46;;;;;;;26.08;15.15;;;5.10;99.90;;;;;;5089920;28;20044;-78
2021/12/04 09:10:13;;;;;;;24.52;15.65;;;5.20;99.90;;;;;;5075415;28;20549;-74
2021/12/04 09:12:40;;;;;;;31.05;16.30;;;5.20;99.90;;;;;;5086941;28;20089;-79
2021/12/04 09:15:13;;;;;;;30.63;16.60;;;5.20;99.90;;;;;;5081222;28;20041;-78
2021/12/04 09:17:39;;;;;;;28.27;15.77;;;5.20;99.90;;;;;;5051484;28;20037;-78
2021/12/04 09:20:07;;;;;;;29.20;16.17;;;5.30;99.90;;;;;;5061891;28;20047;-78
2021/12/04 09:22:35;;;;;;;27.92;15.55;;;5.20;99.90;;;;;;5053094;28;20055;-76
2021/12/04 09:25:21;;;;;;;28.80;15.95;;;5.20;99.90;;;;;;5059410;28;20131;-77
2021/12/04 10:00:25;;;;;;;19.90;11.57;;;5.60;99.90;;;;;;5088252;28;20048;-79
2021/12/04 10:03:12;;;;;;;18.40;11.65;;;5.60;99.90;;;;;;5081614;28;20131;-79
2021/12/04 10:25:05;;;;;;;20.45;12.38;;;5.80;99.90;;;;;;5088595;28;20056;-78
2021/12/04 10:33:12;;;;;;;25.15;14.95;;;5.80;99.90;;;;;;5089378;28;20126;-78
2021/12/04 10:35:38;;;;;;;29.77;15.90;;;5.80;99.90;;;;;;5104533;27;20045;-80
2021/12/04 10:38:07;;;;;;;26.95;15.52;;;5.70;99.90;;;;;;5112938;27;20075;-79
2021/12/04 10:40:45;;;;;;;23.60;15.23;;;5.70;99.90;;;;;;5072683;28;20047;-77
2021/12/04 10:43:35;;;;;;;25.17;15.30;;;5.70;99.90;;;;;;5089925;28;20147;-76
2021/12/04 10:46:11;;;;;;;32.25;18.02;;;5.70;99.90;;;;;;5089085;28;20056;-75
2021/12/04 10:48:44;;;;;;;27.95;16.17;;;5.60;99.90;;;;;;5099338;28;20056;-75
2021/12/04 10:53:49;;;;;;;25.20;15.75;;;5.70;99.90;;;;;;5088181;28;20485;-77
2021/12/04 11:01:55;;;;;;;27.77;16.65;;;5.70;99.90;;;;;;5089637;28;20051;-75
2021/12/04 11:04:41;;;;;;;25.55;16.52;;;5.70;99.90;;;;;;5089442;28;20047;-79
2021/12/04 11:24:27;;;;;;;27.95;18.10;;;5.80;99.90;;;;;;5067661;28;20048;-79
2021/12/04 11:40:56;;;;;;;29.83;18.20;;;5.70;99.90;;;;;;5069181;28;20139;-80
2021/12/04 11:42:57;;;;;;;30.88;17.63;;;5.70;99.90;;;;;;5057821;28;20489;-81
2021/12/04 11:45:28;;;;;;;32.30;17.65;;;5.70;99.90;;;;;;5052672;28;20106;-73
2021/12/04 11:47:57;;;;;;;24.63;16.38;;;5.70;99.90;;;;;;5068789;28;20084;-81
2021/12/04 11:50:30;;;;;;;31.13;17.00;;;5.70;99.90;;;;;;5068725;28;20139;-80
2021/12/04 11:53:00;;;;;;;27.90;15.70;;;5.80;99.90;;;;;;5069136;28;20048;-82
2021/12/04 11:55:28;;;;;;;32.53;18.38;;;5.80;99.90;;;;;;5068278;28;20497;-83
2021/12/04 11:57:56;;;;;;;24.58;15.50;;;5.80;99.90;;;;;;5069119;28;20091;-80
2021/12/04 12:00:28;;;;;;;26.20;17.25;;;5.90;99.90;;;;;;5102941;28;20465;-74
2021/12/04 12:03:14;;;;;;;28.02;15.93;;;5.80;99.90;;;;;;5072056;28;20040;-81
2021/12/04 12:05:51;;;;;;;36.50;16.48;;;5.90;99.90;;;;;;5072141;28;20053;-81
2021/12/04 12:08:36;;;;;;;32.80;16.88;;;6.00;99.90;;;;;;5072805;28;20124;-81
2021/12/04 12:11:08;;;;;;;27.42;16.02;;;6.00;99.90;;;;;;5072172;28;20098;-74
2021/12/04 12:13:44;;;;;;;24.45;15.27;;;5.90;99.90;;;;;;5072436;28;20084;-80
2021/12/04 12:16:21;;;;;;;25.02;15.52;;;6.00;99.90;;;;;;5072702;28;20582;-81
2021/12/04 12:19:19;;;;;;;27.65;16.00;;;5.90;99.90;;;;;;5071665;28;20241;-74
2021/12/04 12:22:02;;;;;;;24.05;14.05;;;5.90;99.90;;;;;;5078662;28;20060;-80
2021/12/04 12:38:11;;;;;;;27.27;15.13;;;5.80;99.90;;;;;;5073290;28;20119;-81
2021/12/04 12:40:37;;;;;;;23.92;13.95;;;6.00;99.90;;;;;;5068187;28;20044;-80
2021/12/04 12:43:14;;;;;;;20.83;14.40;;;5.90;99.90;;;;;;5075686;28;20488;-78
2021/12/04 12:45:50;;;;;;;26.52;15.35;;;5.90;99.90;;;;;;5073426;28;20040;-79
2021/12/04 12:48:16;;;;;;;23.98;14.55;;;5.90;99.90;;;;;;5092041;28;20411;-79
2021/12/04 12:50:44;;;;;;;26.30;15.05;;;5.90;99.90;;;;;;5089963;28;20040;-73
2021/12/04 12:53:19;;;;;;;24.95;14.45;;;5.90;99.90;;;;;;5074943;28;20044;-79
2021/12/04 12:55:48;;;;;;;26.40;15.38;;;6.00;99.90;;;;;;5067762;28;20135;-77
2021/12/04 12:58:31;;;;;;;26.83;15.25;;;6.00;99.90;;;;;;5083205;28;20064;-77
2021/12/04 13:12:11;;;;;;;26.27;15.10;;;5.90;99.90;;;;;;5090652;28;20400;-78
2021/12/04 13:14:50;;;;;;;29.45;16.80;;;5.90;99.90;;;;;;5120910;27;20127;-80
2021/12/04 13:17:19;;;;;;;28.38;16.10;;;5.90;99.90;;;;;;5086659;27;20051;-82
2021/12/04 13:19:49;;;;;;;28.48;17.38;;;5.80;99.90;;;;;;5050545;28;20053;-78
2021/12/04 13:22:26;;;;;;;34.90;17.25;;;5.90;99.90;;;;;;5051839;28;20124;-85
2021/12/04 13:24:54;;;;;;;29.48;17.08;;;5.90;99.90;;;;;;5053037;28;20044;-81
2021/12/04 13:30:03;;;;;;;25.85;16.23;;;5.80;99.90;;;;;;5098056;28;20033;-81
2021/12/04 13:32:34;;;;;;;30.75;18.45;;;5.90;99.90;;;;;;5060343;28;20040;-81
2021/12/04 13:35:10;;;;;;;28.02;17.98;;;5.80;99.90;;;;;;5091200;28;20039;-82
2021/12/04 13:37:36;;;;;;;29.85;17.20;;;5.80;99.90;;;;;;5090784;28;20044;-82
2021/12/04 13:40:07;;;;;;;31.13;18.08;;;5.80;99.90;;;;;;5079374;28;20045;-81
2021/12/04 13:42:37;;;;;;;27.67;16.88;;;5.80;99.90;;;;;;5050789;28;20041;-81
2021/12/04 13:45:10;;;;;;;30.10;17.45;;;5.90;99.90;;;;;;5051521;28;20050;-80
2021/12/04 13:47:37;;;;;;;29.83;17.45;;;5.90;99.90;;;;;;5092667;27;20127;-82
2021/12/04 13:52:53;;;;;;;30.20;18.23;;;5.90;99.90;;;;;;5059318;28;20489;-80
2021/12/04 13:55:19;;;;;;;28.52;17.98;;;5.90;99.90;;;;;;5089767;28;20069;-83
2021/12/04 13:57:45;;;;;;;29.38;18.52;;;5.90;99.90;;;;;;5077690;28;20114;-81
2021/12/04 14:00:15;;;;;;;29.10;17.52;;;5.90;99.90;;;;;;5033345;28;20051;-76
2021/12/04 14:02:40;;;;;;;32.33;19.90;;;5.90;99.90;;;;;;5057133;28;20087;-81
2021/12/04 14:05:09;;;;;;;35.20;19.63;;;5.90;99.90;;;;;;5086240;28;20068;-76
2021/12/04 14:07:36;;;;;;;36.90;19.77;;;5.90;99.90;;;;;;5083094;28;20128;-72
2021/12/04 14:10:40;;;;;;;31.55;19.88;;;5.90;99.90;;;;;;5051365;28;20457;-78
2021/12/04 14:13:07;;;;;;;32.72;20.35;;;5.90;99.90;;;;;;5081410;28;20048;-73
2021/12/04 14:15:34;;;;;;;31.67;21.02;;;5.80;99.90;;;;;;5089225;28;20039;-80
2021/12/04 14:18:06;;;;;;;34.58;21.65;;;5.80;99.90;;;;;;5090098;28;20040;-81
2021/12/04 14:20:33;;;;;;;34.38;21.20;;;5.80;99.90;;;;;;5089509;28;20044;-73
2021/12/04 14:22:59;;;;;;;33.80;20.10;;;5.80;99.90;;;;;;5089343;28;20040;-80
2021/12/04 14:25:27;;;;;;;39.42;21.17;;;5.80;99.90;;;;;;5089043;28;20496;-76
2021/12/04 14:27:58;;;;;;;37.10;21.95;;;5.80;99.90;;;;;;5090147;28;20598;-78
2021/12/04 14:30:32;;;;;;;37.60;24.08;;;5.80;99.90;;;;;;5102353;28;20048;-79
2021/12/04 14:32:58;;;;;;;47.00;23.33;;;5.80;99.90;;;;;;5050291;28;20120;-79
2021/12/04 14:35:28;;;;;;;41.08;23.58;;;5.80;99.90;;;;;;5060414;28;20051;-81
2021/12/04 14:37:56;;;;;;;45.13;23.70;;;5.80;99.90;;;;;;5084708;28;20036;-81
2021/12/04 14:40:25;;;;;;;36.95;22.55;;;5.80;99.90;;;;;;5089895;28;20449;-81
2021/12/04 14:42:51;;;;;;;36.13;22.17;;;5.80;99.90;;;;;;5082148;28;20033;-70
2021/12/04 14:45:30;;;;;;;34.47;20.90;;;5.80;99.90;;;;;;5072964;28;20036;-74
2021/12/04 14:48:16;;;;;;;43.58;23.20;;;5.90;99.90;;;;;;5069487;28;20417;-71
2021/12/04 14:50:45;;;;;;;46.58;24.48;;;5.80;99.90;;;;;;5081206;28;20111;-76
2021/12/04 14:53:14;;;;;;;45.00;25.15;;;5.70;99.90;;;;;;5089715;28;20447;-72
2021/12/04 14:55:42;;;;;;;36.45;24.52;;;5.80;99.90;;;;;;5072225;28;20048;-72
2021/12/04 14:58:14;;;;;;;41.05;22.10;;;5.80;99.90;;;;;;5088975;28;20047;-73
2021/12/04 15:00:46;;;;;;;41.45;22.48;;;5.80;99.90;;;;;;5088953;28;20399;-81
2021/12/04 15:03:15;;;;;;;34.72;20.38;;;5.80;99.90;;;;;;5087297;28;20075;-73
2021/12/04 15:05:53;;;;;;;39.83;22.48;;;5.80;99.90;;;;;;5075783;28;20397;-74
2021/12/04 15:08:28;;;;;;;37.47;21.98;;;5.80;99.90;;;;;;5062606;28;20122;-78
2021/12/04 15:11:04;;;;;;;39.42;21.42;;;5.80;99.90;;;;;;5088646;28;20186;-79
2021/12/04 15:13:35;;;;;;;38.22;21.42;;;5.80;99.90;;;;;;5089437;28;20566;-74
2021/12/04 15:16:04;;;;;;;30.25;20.10;;;5.80;99.90;;;;;;5080218;28;20053;-73
2021/12/04 15:18:36;;;;;;;31.42;20.10;;;5.80;99.90;;;;;;5069707;28;20059;-77
2021/12/04 15:21:06;;;;;;;32.47;19.38;;;5.80;99.90;;;;;;5062786;28;20055;-74
2021/12/04 15:23:34;;;;;;;30.60;18.70;;;5.80;99.90;;;;;;5123773;28;20051;-73
2021/12/04 15:26:12;;;;;;;34.85;19.35;;;5.80;99.90;;;;;;5088565;28;20044;-78
2021/12/04 15:28:48;;;;;;;28.55;18.80;;;5.80;99.90;;;;;;5079669;28;20032;-77
2021/12/04 15:31:15;;;;;;;30.27;18.45;;;5.80;99.90;;;;;;5079640;28;20052;-82
2021/12/04 15:33:45;;;;;;;31.83;18.83;;;5.80;99.90;;;;;;5088627;28;20546;-76
2021/12/04 15:36:39;;;;;;;32.47;19.08;;;5.80;99.90;;;;;;5075126;28;20048;-81
2021/12/04 15:39:11;;;;;;;31.63;19.92;;;5.80;99.90;;;;;;5124186;27;20071;-81
2021/12/04 15:41:45;;;;;;;;;;;5.80;99.90;;;;;;5120739;27;20106;-81
2021/12/04 15:44:36;;;;;;;36.17;20.95;;;5.80;99.90;;;;;;5126586;27;19922;-81
2021/12/04 15:47:36;;;;;;;36.28;19.70;;;5.80;99.90;;;;;;5108187;27;20431;-80
2021/12/04 15:50:43;;;;;;;37.40;22.25;;;5.80;99.90;;;;;;5082874;28;20048;-81
2021/12/04 15:53:12;;;;;;;32.47;18.65;;;5.80;99.90;;;;;;5082878;28;20556;-82
2021/12/04 15:55:41;;;;;;;31.77;18.75;;;5.80;99.90;;;;;;5088992;28;20051;-74
2021/12/04 15:58:12;;;;;;;31.65;19.88;;;5.70;99.90;;;;;;5073660;28;20035;-77
2021/12/04 16:00:43;;;;;;;40.47;19.60;;;5.70;99.90;;;;;;5071426;28;20064;-77